Terminal Aerodrome Forecast
Issued by NWS Northern Indiana

Home | Current Version | Previous Version | Text Only | Print | Product List | Glossary Off
Versions: 1 2 3 4 5 6 7 8 9 10 11 12 13 14 15 16 17 18 19

000
FTUS43 KIWX 142300
TAFFWA
TAF
KFWA 142337Z 1500/1524 22003KT P6SM SCT150
     FM151500 22008KT P6SM BKN060
     FM152000 23010KT P6SM -RA OVC030=

USA.gov is the U.S. government's official web portal to all federal, state and local government web resources and services.